XBRLQ XAMT-MMCU
Flight info
| Callsign | XBRLQ |
|---|---|
| Flight time | N/A |
| Altitude | 9500 |
| Route | DCT MMCU |
| Aircraft | C172/L-S/C |
Departure
| Time | N/A |
|---|---|
| Airport | XAMT |
Arrival
| Time | 2026-04-27 04:27 |
|---|---|
| Airport | General Roberto Fierro Villalobos International Airport (MMCU) |
| Time | Latitude | Longitude | Altitude | Speed | Heading |
|---|---|---|---|---|---|
| 2026-04-27 04:03 | 28.65586 | -106.89728 | 6530 ft | 0 kts | 270° |
| 2026-04-27 04:05 | 28.65586 | -106.89786 | 6529 ft | 25 kts | 269° |
| 2026-04-27 04:05 | 28.65585 | -106.90131 | 6527 ft | 61 kts | 270° |
| 2026-04-27 04:05 | 28.65542 | -106.90698 | 6564 ft | 79 kts | 250° |
| 2026-04-27 04:05 | 28.65132 | -106.91081 | 6666 ft | 84 kts | 185° |
| 2026-04-27 04:06 | 28.64695 | -106.90677 | 6721 ft | 96 kts | 94° |
| 2026-04-27 04:06 | 28.64789 | -106.89919 | 6806 ft | 97 kts | 82° |
| 2026-04-27 04:06 | 28.64894 | -106.89151 | 6901 ft | 97 kts | 81° |
| 2026-04-27 04:07 | 28.65095 | -106.87658 | 7132 ft | 95 kts | 81° |
| 2026-04-27 04:07 | 28.65196 | -106.86911 | 7255 ft | 96 kts | 81° |
| 2026-04-27 04:07 | 28.65299 | -106.86150 | 7379 ft | 98 kts | 81° |
| 2026-04-27 04:07 | 28.65400 | -106.85392 | 7502 ft | 97 kts | 81° |
| 2026-04-27 04:08 | 28.65488 | -106.84628 | 7619 ft | 98 kts | 86° |
| 2026-04-27 04:08 | 28.65541 | -106.83848 | 7733 ft | 99 kts | 85° |
| 2026-04-27 04:08 | 28.65580 | -106.83055 | 7856 ft | 102 kts | 89° |
| 2026-04-27 04:08 | 28.65585 | -106.82514 | 7923 ft | 103 kts | 89° |
| 2026-04-27 04:09 | 28.65594 | -106.81400 | 8095 ft | 109 kts | 90° |
| 2026-04-27 04:09 | 28.65602 | -106.80527 | 8226 ft | 111 kts | 89° |
| 2026-04-27 04:09 | 28.65606 | -106.79943 | 8310 ft | 111 kts | 90° |
| 2026-04-27 04:09 | 28.65615 | -106.79057 | 8443 ft | 113 kts | 89° |
| 2026-04-27 04:10 | 28.65625 | -106.78146 | 8568 ft | 116 kts | 90° |
| 2026-04-27 04:10 | 28.65637 | -106.77229 | 8700 ft | 117 kts | 89° |
| 2026-04-27 04:10 | 28.65650 | -106.76297 | 8827 ft | 117 kts | 89° |
| 2026-04-27 04:10 | 28.65664 | -106.75363 | 8959 ft | 117 kts | 89° |
| 2026-04-27 04:11 | 28.65671 | -106.74463 | 9072 ft | 113 kts | 89° |
| 2026-04-27 04:11 | 28.65682 | -106.73562 | 9201 ft | 115 kts | 89° |
| 2026-04-27 04:11 | 28.65694 | -106.72650 | 9322 ft | 113 kts | 89° |
| 2026-04-27 04:11 | 28.65757 | -106.71769 | 9411 ft | 111 kts | 81° |
| 2026-04-27 04:12 | 28.65872 | -106.70886 | 9494 ft | 115 kts | 81° |
| 2026-04-27 04:12 | 28.65994 | -106.69967 | 9504 ft | 122 kts | 81° |
| 2026-04-27 04:12 | 28.66123 | -106.68992 | 9510 ft | 126 kts | 81° |
| 2026-04-27 04:12 | 28.66256 | -106.67996 | 9513 ft | 128 kts | 81° |
| 2026-04-27 04:13 | 28.66389 | -106.66985 | 9510 ft | 129 kts | 81° |
| 2026-04-27 04:13 | 28.66523 | -106.65976 | 9513 ft | 132 kts | 81° |
| 2026-04-27 04:13 | 28.66660 | -106.64940 | 9513 ft | 132 kts | 81° |
| 2026-04-27 04:13 | 28.66798 | -106.63907 | 9514 ft | 132 kts | 81° |
| 2026-04-27 04:14 | 28.66934 | -106.62883 | 9513 ft | 133 kts | 81° |
| 2026-04-27 04:14 | 28.67072 | -106.61839 | 9514 ft | 134 kts | 81° |
| 2026-04-27 04:14 | 28.67213 | -106.60784 | 9509 ft | 134 kts | 81° |
| 2026-04-27 04:14 | 28.67352 | -106.59734 | 9508 ft | 133 kts | 81° |
| 2026-04-27 04:15 | 28.67491 | -106.58694 | 9510 ft | 132 kts | 81° |
| 2026-04-27 04:15 | 28.67630 | -106.57654 | 9510 ft | 133 kts | 81° |
| 2026-04-27 04:15 | 28.67773 | -106.56612 | 9509 ft | 133 kts | 81° |
| 2026-04-27 04:15 | 28.67911 | -106.55586 | 9507 ft | 132 kts | 81° |
| 2026-04-27 04:16 | 28.68049 | -106.54556 | 9507 ft | 131 kts | 81° |
| 2026-04-27 04:16 | 28.68188 | -106.53528 | 9503 ft | 130 kts | 81° |
| 2026-04-27 04:16 | 28.68326 | -106.52502 | 9506 ft | 131 kts | 81° |
| 2026-04-27 04:16 | 28.68463 | -106.51483 | 9504 ft | 132 kts | 81° |
| 2026-04-27 04:17 | 28.68602 | -106.50454 | 9507 ft | 131 kts | 81° |
| 2026-04-27 04:17 | 28.68742 | -106.49423 | 9506 ft | 132 kts | 81° |
| 2026-04-27 04:17 | 28.68881 | -106.48391 | 9507 ft | 131 kts | 81° |
| 2026-04-27 04:17 | 28.69020 | -106.47370 | 9508 ft | 132 kts | 81° |
| 2026-04-27 04:18 | 28.69162 | -106.46331 | 9505 ft | 132 kts | 81° |
| 2026-04-27 04:18 | 28.69301 | -106.45300 | 9507 ft | 131 kts | 81° |
| 2026-04-27 04:18 | 28.69442 | -106.44268 | 9506 ft | 132 kts | 81° |
| 2026-04-27 04:18 | 28.69581 | -106.43230 | 9508 ft | 133 kts | 81° |
| 2026-04-27 04:19 | 28.69720 | -106.42196 | 9512 ft | 134 kts | 81° |
| 2026-04-27 04:19 | 28.69865 | -106.41145 | 9508 ft | 133 kts | 80° |
| 2026-04-27 04:19 | 28.70012 | -106.40108 | 9511 ft | 133 kts | 81° |
| 2026-04-27 04:19 | 28.70156 | -106.39066 | 9513 ft | 133 kts | 80° |
| 2026-04-27 04:20 | 28.70297 | -106.38028 | 9513 ft | 135 kts | 81° |
| 2026-04-27 04:20 | 28.70441 | -106.36972 | 9511 ft | 134 kts | 81° |
| 2026-04-27 04:20 | 28.70583 | -106.35923 | 9507 ft | 132 kts | 81° |
| 2026-04-27 04:20 | 28.70724 | -106.34895 | 9505 ft | 130 kts | 81° |
| 2026-04-27 04:21 | 28.70861 | -106.33880 | 9505 ft | 129 kts | 81° |
| 2026-04-27 04:21 | 28.70999 | -106.32865 | 9505 ft | 129 kts | 81° |
| 2026-04-27 04:21 | 28.71137 | -106.31858 | 9460 ft | 133 kts | 81° |
| 2026-04-27 04:21 | 28.71284 | -106.30800 | 9339 ft | 135 kts | 81° |
| 2026-04-27 04:22 | 28.71424 | -106.29781 | 9208 ft | 124 kts | 81° |
| 2026-04-27 04:22 | 28.71548 | -106.28874 | 9068 ft | 111 kts | 81° |
| 2026-04-27 04:22 | 28.71660 | -106.28045 | 8912 ft | 100 kts | 81° |
| 2026-04-27 04:22 | 28.71759 | -106.27292 | 8767 ft | 94 kts | 81° |
| 2026-04-27 04:23 | 28.71857 | -106.26563 | 8624 ft | 92 kts | 81° |
| 2026-04-27 04:23 | 28.71955 | -106.25849 | 8497 ft | 97 kts | 81° |
| 2026-04-27 04:23 | 28.72069 | -106.25010 | 8404 ft | 116 kts | 81° |
| 2026-04-27 04:23 | 28.72199 | -106.24063 | 8300 ft | 124 kts | 81° |
| 2026-04-27 04:24 | 28.72333 | -106.23078 | 8199 ft | 127 kts | 81° |
| 2026-04-27 04:24 | 28.72465 | -106.22106 | 8078 ft | 120 kts | 81° |
| 2026-04-27 04:24 | 28.72588 | -106.21207 | 7947 ft | 112 kts | 81° |
| 2026-04-27 04:24 | 28.72703 | -106.20354 | 7811 ft | 106 kts | 80° |
| 2026-04-27 04:25 | 28.72814 | -106.19540 | 7677 ft | 103 kts | 80° |
| 2026-04-27 04:25 | 28.72922 | -106.18748 | 7538 ft | 99 kts | 81° |
| 2026-04-27 04:25 | 28.73025 | -106.17990 | 7403 ft | 97 kts | 81° |
| 2026-04-27 04:25 | 28.73128 | -106.17237 | 7274 ft | 94 kts | 81° |
| 2026-04-27 04:26 | 28.73229 | -106.16512 | 7138 ft | 91 kts | 80° |
| 2026-04-27 04:26 | 28.73329 | -106.15797 | 7000 ft | 91 kts | 80° |
| 2026-04-27 04:26 | 28.73423 | -106.15095 | 6875 ft | 88 kts | 81° |
| 2026-04-27 04:26 | 28.73511 | -106.14427 | 6799 ft | 80 kts | 81° |
| 2026-04-27 04:27 | 28.73586 | -106.13854 | 6733 ft | 67 kts | 81° |
| 2026-04-27 04:27 | 28.73656 | -106.13331 | 6619 ft | 65 kts | 80° |
| 2026-04-27 04:27 | 28.73720 | -106.12838 | 6489 ft | 62 kts | 81° |
| 2026-04-27 04:27 | 28.73754 | -106.12400 | 5949 ft | 32 kts | 153° |
| 2026-04-27 04:28 | 28.73695 | -106.12321 | 4872 ft | 0 kts | 22° |